Time;durP1;ratioP1;P1;durP2;ratioP2;P2;SDS_P1;SDS_P2;PMS_P1;PMS_P2;Temp;Humidity;BMP_temperature;BMP_pressure;BME280_temperature;BME280_humidity;BME280_pressure;Samples;Min_cycle;Max_cycle;Signal;HPM_P1;HPM_P2
2022/09/12 00:01:04;;;;;;;;;;;20.50;84.40;;;;;;5096987;28;19909;-54
2022/09/12 00:03:30;;;;;;;;;;;20.50;84.40;;;;;;5097012;28;19973;-55
2022/09/12 00:05:55;;;;;;;;;;;20.50;84.40;;;;;;5096757;28;19916;-53
2022/09/12 00:08:20;;;;;;;;;;;20.50;84.40;;;;;;5096483;28;19912;-53
2022/09/12 00:10:46;;;;;;;;;;;20.50;84.40;;;;;;5096710;28;19977;-54
2022/09/12 00:13:11;;;;;;;;;;;20.50;84.40;;;;;;5096418;28;20381;-56
2022/09/12 00:15:40;;;;;;;;;;;20.50;84.40;;;;;;5096920;28;19910;-53
2022/09/12 00:18:07;;;;;;;;;;;20.50;84.40;;;;;;5096196;28;20340;-53
2022/09/12 00:20:33;;;;;;;;;;;20.50;84.40;;;;;;5096282;28;19908;-54
2022/09/12 00:22:59;;;;;;;;;;;20.50;84.40;;;;;;5096280;28;20290;-53
2022/09/12 00:25:25;;;;;;;;;;;20.50;84.40;;;;;;5096227;28;20278;-53
2022/09/12 00:27:50;;;;;;;;;;;20.50;84.40;;;;;;5096414;28;19912;-54
2022/09/12 00:30:16;;;;;;;;;;;20.50;84.40;;;;;;5096442;28;20090;-54
2022/09/12 00:32:41;;;;;;;;;;;20.50;84.40;;;;;;5078253;28;19908;-55
2022/09/12 00:35:07;;;;;;;;;;;20.50;84.40;;;;;;5096314;28;19909;-53
2022/09/12 00:37:33;;;;;;;;;;;20.50;84.40;;;;;;5096115;28;19908;-55
2022/09/12 00:39:59;;;;;;;;;;;20.50;84.40;;;;;;5096175;28;20012;-53
2022/09/12 00:42:24;;;;;;;;;;;20.50;84.40;;;;;;5096104;28;20266;-56
2022/09/12 00:44:50;;;;;;;;;;;20.50;84.40;;;;;;5095835;28;19908;-54
2022/09/12 00:47:29;;;;;;;;;;;20.50;84.50;;;;;;5095765;28;19958;-56
2022/09/12 00:49:58;;;;;;;;;;;20.50;84.40;;;;;;5077745;28;19916;-53
2022/09/12 00:52:33;;;;;;;;;;;20.50;84.40;;;;;;5095940;28;19915;-56
2022/09/12 00:54:59;;;;;;;;;;;20.50;84.40;;;;;;5095549;28;19912;-52
2022/09/12 00:57:27;;;;;;;;;;;20.50;84.40;;;;;;5077375;28;19915;-54
2022/09/12 00:59:54;;;;;;;;;;;20.50;84.40;;;;;;5095800;28;20396;-52
2022/09/12 01:02:20;;;;;;;;;;;20.50;84.40;;;;;;5095395;28;19961;-56
2022/09/12 01:04:46;;;;;;;;;;;20.50;84.40;;;;;;5095660;28;19924;-54
2022/09/12 01:07:14;;;;;;;;;;;20.50;84.40;;;;;;5095283;28;20370;-55
2022/09/12 01:09:40;;;;;;;;;;;20.50;84.40;;;;;;5076905;28;19912;-53
2022/09/12 01:12:06;;;;;;;;;;;20.50;84.40;;;;;;5095178;28;19908;-56
2022/09/12 01:14:33;;;;;;;;;;;20.50;84.40;;;;;;5095489;28;19931;-55
2022/09/12 01:16:59;;;;;;;;;;;20.50;84.40;;;;;;5095102;28;19919;-54
2022/09/12 01:19:27;;;;;;;;;;;20.50;84.50;;;;;;5077494;28;19995;-53
2022/09/12 01:21:55;;;;;;;;;;;20.50;84.40;;;;;;5095322;28;19957;-55
2022/09/12 01:24:27;;;;;;;;;;;20.50;84.40;;;;;;5095371;28;19916;-55
2022/09/12 01:27:03;;;;;;;;;;;20.50;84.40;;;;;;5094763;28;19916;-54
2022/09/12 01:29:31;;;;;;;;;;;20.40;84.30;;;;;;5095127;28;20433;-56
2022/09/12 01:32:10;;;;;;;;;;;20.50;84.40;;;;;;5095110;28;19950;-53
2022/09/12 01:34:45;;;;;;;;;;;20.50;84.40;;;;;;5095123;28;19908;-55
2022/09/12 01:37:19;;;;;;;;;;;20.50;84.40;;;;;;5095167;28;19908;-54
2022/09/12 01:39:52;;;;;;;;;;;20.50;84.30;;;;;;5094754;28;19908;-50
2022/09/12 01:42:22;;;;;;;;;;;20.40;84.30;;;;;;5095303;28;19908;-54
2022/09/12 01:44:48;;;;;;;;;;;20.40;84.40;;;;;;5076860;28;19916;-53
2022/09/12 01:47:17;;;;;;;;;;;20.40;84.40;;;;;;5094803;28;19912;-54
2022/09/12 01:49:46;;;;;;;;;;;20.40;84.30;;;;;;5094506;28;20359;-52
2022/09/12 01:52:17;;;;;;;;;;;20.40;84.30;;;;;;5094869;28;19915;-53
2022/09/12 01:54:46;;;;;;;;;;;20.40;84.30;;;;;;5094547;28;19930;-53
2022/09/12 01:57:19;;;;;;;;;;;20.40;84.90;;;;;;5094738;28;19908;-54
2022/09/12 01:59:47;;;;;;;;;;;20.40;84.30;;;;;;5094367;28;19914;-55
2022/09/12 02:02:29;;;;;;;;;;;20.40;84.40;;;;;;5094683;28;20006;-52
2022/09/12 02:05:01;;;;;;;;;;;20.40;84.40;;;;;;5094783;28;20314;-55
2022/09/12 02:07:41;;;;;;;;;;;20.40;84.50;;;;;;5094164;28;20351;-54
2022/09/12 02:10:15;;;;;;;;;;;20.40;84.40;;;;;;5094338;28;19951;-54
2022/09/12 02:12:52;;;;;;;;;;;20.40;84.40;;;;;;5094724;28;19915;-53
2022/09/12 02:15:18;;;;;;;;;;;20.40;84.40;;;;;;5094447;28;20401;-51
2022/09/12 02:17:46;;;;;;;;;;;20.40;84.40;;;;;;5094377;28;19920;-55
2022/09/12 02:20:41;;;;;;;;;;;20.40;84.30;;;;;;5093359;28;19994;-55
2022/09/12 02:23:08;;;;;;;;;;;20.40;84.40;;;;;;5081165;28;19962;-53
2022/09/12 02:25:36;;;;;;;;;;;20.40;84.40;;;;;;5094137;28;20327;-51
2022/09/12 02:28:11;;;;;;;;;;;20.40;84.40;;;;;;5093839;28;19966;-55
2022/09/12 02:30:54;;;;;;;;;;;20.40;84.30;;;;;;5093984;28;19964;-51
2022/09/12 02:33:30;;;;;;;;;;;20.40;84.40;;;;;;5093837;28;19908;-55
2022/09/12 02:36:06;;;;;;;;;;;20.40;84.30;;;;;;5094008;28;20277;-52
2022/09/12 02:38:34;;;;;;;;;;;20.40;84.40;;;;;;5093787;28;20365;-53
2022/09/12 02:41:00;;;;;;;;;;;20.40;84.40;;;;;;5093795;28;19912;-54
2022/09/12 02:43:25;;;;;;;;;;;20.40;84.30;;;;;;5093678;28;19915;-54
2022/09/12 02:45:51;;;;;;;;;;;20.40;84.40;;;;;;5093614;28;20274;-54
2022/09/12 02:48:16;;;;;;;;;;;20.40;84.40;;;;;;5094008;28;19961;-56
2022/09/12 02:50:42;;;;;;;;;;;20.40;84.40;;;;;;5093940;28;19915;-54
2022/09/12 02:53:08;;;;;;;;;;;20.40;84.40;;;;;;5093704;28;19908;-53
2022/09/12 02:55:34;;;;;;;;;;;20.40;84.40;;;;;;5093832;28;20262;-56
2022/09/12 02:58:01;;;;;;;;;;;20.40;84.50;;;;;;5093459;28;19915;-56
2022/09/12 03:00:28;;;;;;;;;;;20.40;84.40;;;;;;5093631;28;19908;-55
2022/09/12 03:03:08;;;;;;;;;;;20.40;84.40;;;;;;5093671;28;19908;-54
2022/09/12 03:05:37;;;;;;;;;;;20.40;84.40;;;;;;5093596;28;19908;-54
2022/09/12 03:08:14;;;;;;;;;;;20.40;84.30;;;;;;5075584;28;20255;-52
2022/09/12 03:10:46;;;;;;;;;;;20.40;84.40;;;;;;5094035;28;20262;-51
2022/09/12 03:13:19;;;;;;;;;;;20.40;84.40;;;;;;5093174;28;19908;-52
2022/09/12 03:15:59;;;;;;;;;;;20.40;84.40;;;;;;5093681;28;19912;-55
2022/09/12 03:18:39;;;;;;;;;;;20.30;84.40;;;;;;5093486;28;19908;-53
2022/09/12 03:21:11;;;;;;;;;;;20.40;84.40;;;;;;5093702;28;20058;-55
2022/09/12 03:24:00;;;;;;;;;;;20.30;84.40;;;;;;5093685;28;19908;-54
2022/09/12 03:26:32;;;;;;;;;;;20.30;84.40;;;;;;5067455;28;19920;-54
2022/09/12 03:28:58;;;;;;;;;;;20.30;84.40;;;;;;5093310;28;19912;-54
2022/09/12 03:31:23;;;;;;;;;;;20.30;84.30;;;;;;5093330;28;19915;-55
2022/09/12 03:33:49;;;;;;;;;;;20.30;84.40;;;;;;5097310;28;19912;-55
2022/09/12 03:36:18;;;;;;;;;;;20.30;84.40;;;;;;5097297;28;19922;-56
2022/09/12 03:38:43;;;;;;;;;;;20.40;84.90;;;;;;5097419;28;20003;-53
2022/09/12 03:41:09;;;;;;;;;;;20.30;84.40;;;;;;5097563;28;19956;-52
2022/09/12 03:43:34;;;;;;;;;;;20.30;84.40;;;;;;5097327;28;19983;-54
2022/09/12 03:46:00;;;;;;;;;;;20.30;84.40;;;;;;5096756;28;19908;-54
2022/09/12 03:48:25;;;;;;;;;;;20.30;84.30;;;;;;5097032;28;19929;-53
2022/09/12 03:50:51;;;;;;;;;;;20.40;84.40;;;;;;5096994;28;20435;-56
2022/09/12 03:53:16;;;;;;;;;;;20.30;84.30;;;;;;5097036;28;19915;-54
2022/09/12 03:55:41;;;;;;;;;;;20.30;84.30;;;;;;5096908;28;20355;-55
2022/09/12 03:58:07;;;;;;;;;;;20.30;84.30;;;;;;5096534;28;20041;-52
2022/09/12 04:00:32;;;;;;;;;;;20.30;84.40;;;;;;5096551;28;19908;-56
2022/09/12 04:02:58;;;;;;;;;;;20.30;84.30;;;;;;5096709;28;19912;-54
2022/09/12 04:05:24;;;;;;;;;;;20.30;84.30;;;;;;5078750;28;20358;-53
2022/09/12 04:07:50;;;;;;;;;;;20.30;84.30;;;;;;5078501;28;19912;-55
2022/09/12 04:10:15;;;;;;;;;;;20.30;84.30;;;;;;5096420;28;19997;-54
2022/09/12 04:12:41;;;;;;;;;;;20.30;84.30;;;;;;5096657;28;20362;-51
2022/09/12 04:15:06;;;;;;;;;;;20.30;84.30;;;;;;5078002;28;19908;-56
2022/09/12 04:17:33;;;;;;;;;;;20.30;84.30;;;;;;5096585;28;19977;-54
2022/09/12 04:19:58;;;;;;;;;;;20.30;84.30;;;;;;5096794;28;20055;-52
2022/09/12 04:22:23;;;;;;;;;;;20.30;84.30;;;;;;5096460;28;19908;-53
2022/09/12 04:24:49;;;;;;;;;;;20.30;84.30;;;;;;5078224;28;19908;-55
2022/09/12 04:27:14;;;;;;;;;;;20.30;84.40;;;;;;5095916;28;19912;-56
2022/09/12 04:29:40;;;;;;;;;;;20.30;84.40;;;;;;5095933;28;19912;-55
2022/09/12 04:32:05;;;;;;;;;;;20.30;84.40;;;;;;5096007;28;20010;-54
2022/09/12 04:34:31;;;;;;;;;;;20.30;84.30;;;;;;5095939;28;20007;-54
2022/09/12 04:36:56;;;;;;;;;;;20.30;84.40;;;;;;5095795;28;20352;-56
2022/09/12 04:39:22;;;;;;;;;;;20.30;84.30;;;;;;5096035;28;19973;-56
2022/09/12 04:41:47;;;;;;;;;;;20.30;84.30;;;;;;5095690;28;19908;-56
2022/09/12 04:44:13;;;;;;;;;;;20.30;84.40;;;;;;5094881;28;20266;-54
2022/09/12 04:46:41;;;;;;;;;;;20.30;84.30;;;;;;5095771;28;19923;-53
2022/09/12 04:49:06;;;;;;;;;;;20.30;84.40;;;;;;5095588;28;20426;-55
2022/09/12 04:51:34;;;;;;;;;;;20.30;84.40;;;;;;5095808;28;19962;-52
2022/09/12 04:54:05;;;;;;;;;;;20.30;84.40;;;;;;5095775;28;20378;-53
2022/09/12 04:56:30;;;;;;;;;;;20.30;84.30;;;;;;5095591;28;19948;-53
2022/09/12 04:58:57;;;;;;;;;;;20.30;84.30;;;;;;5095229;28;19908;-53
2022/09/12 05:01:22;;;;;;;;;;;20.30;84.30;;;;;;5095162;28;19908;-55
2022/09/12 05:03:48;;;;;;;;;;;20.30;84.40;;;;;;5076922;28;19924;-52
2022/09/12 05:06:15;;;;;;;;;;;20.30;84.40;;;;;;5077073;28;20295;-53
2022/09/12 05:08:41;;;;;;;;;;;20.30;84.40;;;;;;5095373;28;19916;-51
2022/09/12 05:11:09;;;;;;;;;;;20.20;84.30;;;;;;5095335;28;19908;-53
2022/09/12 05:13:34;;;;;;;;;;;20.20;84.30;;;;;;5094963;28;19916;-54
2022/09/12 05:16:01;;;;;;;;;;;20.20;84.30;;;;;;5095066;28;19908;-54
2022/09/12 05:18:26;;;;;;;;;;;20.30;84.40;;;;;;5095418;28;19908;-52
2022/09/12 05:20:52;;;;;;;;;;;20.20;84.30;;;;;;5076603;28;19915;-56
2022/09/12 05:23:18;;;;;;;;;;;20.20;84.30;;;;;;5094885;28;19915;-54
2022/09/12 05:25:48;;;;;;;;;;;20.30;84.40;;;;;;5076705;28;19955;-53
2022/09/12 05:28:13;;;;;;;;;;;20.30;84.40;;;;;;5076758;28;19994;-55
2022/09/12 05:30:38;;;;;;;;;;;20.20;84.30;;;;;;5094526;28;20012;-53
2022/09/12 05:33:04;;;;;;;;;;;20.30;84.30;;;;;;5094976;28;19908;-57
2022/09/12 05:35:30;;;;;;;;;;;20.30;84.30;;;;;;5076565;28;19908;-55
2022/09/12 05:37:55;;;;;;;;;;;20.30;84.30;;;;;;5094597;28;19908;-55
2022/09/12 05:40:21;;;;;;;;;;;20.30;84.30;;;;;;5094873;28;19908;-50
2022/09/12 05:42:46;;;;;;;;;;;20.30;84.30;;;;;;5094649;28;20339;-53
2022/09/12 05:45:13;;;;;;;;;;;20.30;84.20;;;;;;5094570;28;19908;-55
2022/09/12 05:47:38;;;;;;;;;;;20.30;84.30;;;;;;5076439;28;19913;-50
2022/09/12 05:50:09;;;;;;;;;;;20.30;84.20;;;;;;5076326;28;19919;-54
2022/09/12 05:52:35;;;;;;;;;;;20.30;84.20;;;;;;5094372;28;20266;-55
2022/09/12 05:55:00;;;;;;;;;;;20.30;84.20;;;;;;5094131;28;19908;-54
2022/09/12 05:57:26;;;;;;;;;;;20.30;84.20;;;;;;5076044;28;19907;-51
2022/09/12 05:59:51;;;;;;;;;;;20.30;84.20;;;;;;5076268;28;19943;-54
2022/09/12 06:02:17;;;;;;;;;;;20.30;84.20;;;;;;5094480;28;20285;-54
2022/09/12 06:04:42;;;;;;;;;;;20.30;84.20;;;;;;5094443;28;19920;-53
2022/09/12 06:07:08;;;;;;;;;;;20.30;84.20;;;;;;5094286;28;19916;-54
2022/09/12 06:09:33;;;;;;;;;;;20.30;84.20;;;;;;5094173;28;19919;-55
2022/09/12 06:11:59;;;;;;;;;;;20.30;84.20;;;;;;5076056;28;19908;-53
2022/09/12 06:14:25;;;;;;;;;;;20.30;84.20;;;;;;5093809;28;19908;-54
2022/09/12 06:16:50;;;;;;;;;;;20.30;84.20;;;;;;5094052;28;19908;-52
2022/09/12 06:19:17;;;;;;;;;;;20.30;84.20;;;;;;5075968;28;20343;-54
2022/09/12 06:21:43;;;;;;;;;;;20.30;84.10;;;;;;5094105;28;19916;-53
2022/09/12 06:24:09;;;;;;;;;;;20.30;84.10;;;;;;5076042;28;20107;-52
2022/09/12 06:26:35;;;;;;;;;;;20.30;84.10;;;;;;5093274;28;20039;-55
2022/09/12 06:29:00;;;;;;;;;;;20.30;84.10;;;;;;5093601;28;19912;-53
2022/09/12 06:31:28;;;;;;;;;;;20.30;84.10;;;;;;5093994;28;20266;-53
2022/09/12 06:33:54;;;;;;;;;;;20.30;84.10;;;;;;5093774;28;20365;-53
2022/09/12 06:36:21;;;;;;;;;;;20.30;84.10;;;;;;5093618;28;19912;-56
2022/09/12 06:38:50;;;;;;;;;;;20.30;84.00;;;;;;5093719;28;19958;-56
2022/09/12 06:41:15;;;;;;;;;;;20.30;84.00;;;;;;5093335;28;19908;-56
2022/09/12 06:43:41;;;;;;;;;;;20.30;84.10;;;;;;5093865;28;20321;-53
2022/09/12 06:46:07;;;;;;;;;;;20.30;84.00;;;;;;5093830;28;20265;-53
2022/09/12 06:48:33;;;;;;;;;;;20.30;84.00;;;;;;5093702;28;19912;-54
2022/09/12 06:50:58;;;;;;;;;;;20.30;84.00;;;;;;5093851;28;19934;-54
2022/09/12 06:53:25;;;;;;;;;;;20.30;84.00;;;;;;5075469;28;19915;-53
2022/09/12 06:55:54;;;;;;;;;;;20.30;84.00;;;;;;5075506;28;20262;-55
2022/09/12 06:58:20;;;;;;;;;;;20.30;84.00;;;;;;5093274;28;19908;-54
2022/09/12 07:00:46;;;;;;;;;;;20.40;84.00;;;;;;5093689;28;19915;-56
2022/09/12 07:03:11;;;;;;;;;;;20.30;84.00;;;;;;5075403;28;20338;-55
2022/09/12 07:05:36;;;;;;;;;;;20.40;84.00;;;;;;5093198;28;19908;-54
2022/09/12 07:08:02;;;;;;;;;;;20.40;84.00;;;;;;5095916;28;19916;-53
2022/09/12 07:10:28;;;;;;;;;;;20.30;84.00;;;;;;5079356;28;19919;-55
2022/09/12 07:12:53;;;;;;;;;;;20.40;83.90;;;;;;5097454;28;19908;-53
2022/09/12 07:15:19;;;;;;;;;;;20.40;84.00;;;;;;5097598;28;19962;-53
2022/09/12 07:17:44;;;;;;;;;;;20.30;83.90;;;;;;5097587;28;19916;-55
2022/09/12 07:20:10;;;;;;;;;;;20.40;83.90;;;;;;5079365;28;19915;-52
2022/09/12 07:22:36;;;;;;;;;;;20.40;83.90;;;;;;5097264;28;20311;-52
2022/09/12 07:25:02;;;;;;;;;;;20.40;83.90;;;;;;5097119;28;19953;-55
2022/09/12 07:27:27;;;;;;;;;;;20.40;83.90;;;;;;5078708;28;19919;-55
2022/09/12 07:29:53;;;;;;;;;;;20.40;83.80;;;;;;5097350;28;19965;-53
2022/09/12 07:32:19;;;;;;;;;;;20.40;83.90;;;;;;5097041;28;20359;-57
2022/09/12 07:34:44;;;;;;;;;;;20.40;83.80;;;;;;5097336;28;19916;-55
2022/09/12 07:37:10;;;;;;;;;;;20.40;83.80;;;;;;5097255;28;19908;-54
2022/09/12 07:39:36;;;;;;;;;;;20.40;83.80;;;;;;5096893;28;19949;-55
2022/09/12 07:42:02;;;;;;;;;;;20.40;83.80;;;;;;5078925;28;19918;-53
2022/09/12 07:44:28;;;;;;;;;;;20.40;83.80;;;;;;5078528;28;19990;-56
2022/09/12 07:46:53;;;;;;;;;;;20.40;83.80;;;;;;5096520;28;20373;-56
2022/09/12 07:49:19;;;;;;;;;;;20.40;83.80;;;;;;5096482;28;19916;-54
2022/09/12 07:51:44;;;;;;;;;;;20.40;83.80;;;;;;5078722;28;19914;-53
2022/09/12 07:54:10;;;;;;;;;;;20.40;83.80;;;;;;5096882;28;19908;-57
2022/09/12 07:56:35;;;;;;;;;;;20.40;83.80;;;;;;5096828;28;20201;-53
2022/09/12 07:59:01;;;;;;;;;;;20.40;83.80;;;;;;5096807;28;19915;-52
2022/09/12 08:01:26;;;;;;;;;;;20.40;83.80;;;;;;5096492;28;19931;-52
2022/09/12 08:03:53;;;;;;;;;;;20.40;83.80;;;;;;5096498;28;19927;-53
2022/09/12 08:06:20;;;;;;;;;;;20.40;83.70;;;;;;5078530;28;20353;-52
2022/09/12 08:08:46;;;;;;;;;;;20.40;83.80;;;;;;5078797;28;20309;-56
2022/09/12 08:11:12;;;;;;;;;;;20.40;83.70;;;;;;5078240;28;20369;-51
2022/09/12 08:13:38;;;;;;;;;;;20.40;83.70;;;;;;5096143;28;19913;-53
2022/09/12 08:16:12;;;;;;;;;;;20.40;83.70;;;;;;5096395;28;19908;-56
2022/09/12 08:18:37;;;;;;;;;;;20.40;83.70;;;;;;5094948;28;19916;-55
2022/09/12 08:21:04;;;;;;;;;;;20.40;83.70;;;;;;5096219;28;19908;-56
2022/09/12 08:23:30;;;;;;;;;;;20.40;83.70;;;;;;5096459;28;19915;-54
2022/09/12 08:25:56;;;;;;;;;;;20.50;83.70;;;;;;5078178;28;19912;-54
2022/09/12 08:28:23;;;;;;;;;;;20.40;83.70;;;;;;5096041;28;19912;-53
2022/09/12 08:30:49;;;;;;;;;;;20.40;83.60;;;;;;5096506;28;19912;-55
2022/09/12 08:33:14;;;;;;;;;;;20.40;83.60;;;;;;5096316;28;19916;-54
2022/09/12 08:35:40;;;;;;;;;;;20.40;83.60;;;;;;5096195;28;19912;-55
2022/09/12 08:38:05;;;;;;;;;;;20.50;83.70;;;;;;5077969;28;19915;-54
2022/09/12 08:40:32;;;;;;;;;;;20.50;83.70;;;;;;5096092;28;20380;-53
2022/09/12 08:43:13;;;;;;;;;;;20.50;83.70;;;;;;5096127;28;19953;-51
2022/09/12 08:45:46;;;;;;;;;;;20.40;83.60;;;;;;5095565;28;20431;-55
2022/09/12 08:48:12;;;;;;;;;;;20.40;83.60;;;;;;5095504;28;19911;-53
2022/09/12 08:50:43;;;;;;;;;;;20.40;83.60;;;;;;5095848;28;19912;-53
2022/09/12 08:53:16;;;;;;;;;;;20.50;83.70;;;;;;5077689;28;20375;-53
2022/09/12 08:55:50;;;;;;;;;;;20.40;83.60;;;;;;5095729;28;20223;-51
2022/09/12 08:58:19;;;;;;;;;;;20.40;83.60;;;;;;5095219;28;20234;-52
2022/09/12 09:00:47;;;;;;;;;;;20.40;83.60;;;;;;5095700;28;20240;-54
2022/09/12 09:03:39;;;;;;;;;;;20.40;83.60;;;;;;5095355;28;19927;-53
2022/09/12 09:06:07;;;;;;;;;;;20.40;83.70;;;;;;5095199;28;19950;-54
2022/09/12 09:08:39;;;;;;;;;;;20.40;83.60;;;;;;5077118;28;19919;-55
2022/09/12 09:11:13;;;;;;;;;;;20.40;83.70;;;;;;5095267;28;19961;-51
2022/09/12 09:16:29;;;;;;;;;;;20.40;83.60;;;;;;5094941;28;20053;-52
2022/09/12 09:18:57;;;;;;;;;;;20.40;83.60;;;;;;5095142;28;19916;-53
2022/09/12 09:21:25;;;;;;;;;;;20.50;83.70;;;;;;5094968;28;19908;-51
2022/09/12 09:23:56;;;;;;;;;;;20.40;83.60;;;;;;5095109;28;20370;-53
2022/09/12 09:26:38;;;;;;;;;;;20.50;83.70;;;;;;5094636;28;19908;-55
2022/09/12 09:29:14;;;;;;;;;;;20.40;83.60;;;;;;5076101;28;19912;-51
2022/09/12 09:31:41;;;;;;;;;;;20.40;83.60;;;;;;5094610;28;19923;-54
2022/09/12 09:34:23;;;;;;;;;;;20.40;83.60;;;;;;5094731;28;19908;-55
2022/09/12 09:36:50;;;;;;;;;;;20.40;83.60;;;;;;5094930;28;19909;-53
2022/09/12 09:39:21;;;;;;;;;;;20.50;83.70;;;;;;5076644;28;19909;-55
2022/09/12 09:41:49;;;;;;;;;;;20.40;83.60;;;;;;5076780;28;20257;-55
2022/09/12 09:44:15;;;;;;;;;;;20.40;83.60;;;;;;5094412;28;19943;-56
2022/09/12 09:46:41;;;;;;;;;;;20.40;83.50;;;;;;5094573;28;19915;-54
2022/09/12 09:49:10;;;;;;;;;;;20.40;83.50;;;;;;5094355;28;20374;-53
2022/09/12 09:51:37;;;;;;;;;;;20.40;83.50;;;;;;5076381;28;20351;-54
2022/09/12 09:54:09;;;;;;;;;;;20.40;83.50;;;;;;5094208;28;19908;-55
2022/09/12 09:56:36;;;;;;;;;;;20.40;83.50;;;;;;5094432;28;19909;-56
2022/09/12 09:59:07;;;;;;;;;;;20.50;83.50;;;;;;5094400;28;19908;-54
2022/09/12 10:01:33;;;;;;;;;;;20.40;83.40;;;;;;5094225;28;19947;-56
2022/09/12 10:03:58;;;;;;;;;;;20.40;83.40;;;;;;5094072;28;19924;-56
2022/09/12 10:06:25;;;;;;;;;;;20.40;83.40;;;;;;5093843;28;20414;-53
2022/09/12 10:09:02;;;;;;;;;;;20.40;83.40;;;;;;5094257;28;19912;-54
2022/09/12 10:11:30;;;;;;;;;;;20.40;83.40;;;;;;5093562;28;20393;-56
2022/09/12 10:13:56;;;;;;;;;;;20.40;83.40;;;;;;5075985;28;19915;-52
2022/09/12 10:16:32;;;;;;;;;;;20.50;83.40;;;;;;5093713;28;19909;-52
2022/09/12 10:19:01;;;;;;;;;;;20.50;83.40;;;;;;5093868;28;19908;-54
2022/09/12 10:21:32;;;;;;;;;;;20.50;83.90;;;;;;5094166;28;19931;-52
2022/09/12 10:24:16;;;;;;;;;;;20.40;83.40;;;;;;5094000;28;20014;-56
2022/09/12 10:26:43;;;;;;;;;;;20.40;83.40;;;;;;5075674;28;20014;-54
2022/09/12 10:29:13;;;;;;;;;;;20.40;83.40;;;;;;5075692;28;19915;-55
2022/09/12 10:31:44;;;;;;;;;;;20.40;83.40;;;;;;5093525;28;19912;-51
2022/09/12 10:34:31;;;;;;;;;;;20.40;83.40;;;;;;5093791;28;19996;-54
2022/09/12 10:37:17;;;;;;;;;;;20.40;83.40;;;;;;5093631;28;19908;-52
2022/09/12 10:39:48;;;;;;;;;;;20.50;83.50;;;;;;5093922;28;19909;-56
2022/09/12 10:42:14;;;;;;;;;;;20.40;83.40;;;;;;5092798;28;20339;-53
2022/09/12 10:44:51;;;;;;;;;;;20.50;83.50;;;;;;5093801;28;19909;-51
2022/09/12 10:47:23;;;;;;;;;;;20.50;83.50;;;;;;5093716;28;19912;-54
2022/09/12 10:49:49;;;;;;;;;;;20.40;83.40;;;;;;5093610;28;19912;-52
2022/09/12 10:52:17;;;;;;;;;;;20.50;83.40;;;;;;5093831;28;19908;-52
2022/09/12 10:54:42;;;;;;;;;;;20.50;83.40;;;;;;5093716;28;19909;-54
2022/09/12 10:57:11;;;;;;;;;;;20.50;83.40;;;;;;5093163;28;19908;-56
2022/09/12 10:59:42;;;;;;;;;;;20.40;83.30;;;;;;5093559;28;20271;-55
2022/09/12 11:02:13;;;;;;;;;;;20.50;83.40;;;;;;5093347;28;20359;-54
2022/09/12 11:04:39;;;;;;;;;;;20.50;83.40;;;;;;5093485;28;20064;-50
2022/09/12 11:07:13;;;;;;;;;;;20.50;83.30;;;;;;5075300;28;20010;-56
2022/09/12 11:09:49;;;;;;;;;;;20.50;83.30;;;;;;5093343;28;20256;-52
2022/09/12 11:12:40;;;;;;;;;;;20.50;83.40;;;;;;5093593;28;20058;-56
2022/09/12 11:15:29;;;;;;;;;;;20.50;83.40;;;;;;5090298;28;19909;-53
2022/09/12 11:18:00;;;;;;;;;;;20.50;83.40;;;;;;5074210;28;19915;-55
2022/09/12 11:20:37;;;;;;;;;;;20.50;83.40;;;;;;5075483;28;20427;-54
2022/09/12 11:23:21;;;;;;;;;;;20.50;83.40;;;;;;5093290;28;19908;-55
2022/09/12 11:25:53;;;;;;;;;;;20.40;83.40;;;;;;5075193;28;19908;-57
2022/09/12 11:28:25;;;;;;;;;;;20.50;83.40;;;;;;5093114;28;19916;-55
2022/09/12 11:30:58;;;;;;;;;;;20.50;83.40;;;;;;5075108;28;20239;-56
2022/09/12 11:33:37;;;;;;;;;;;20.40;83.30;;;;;;5093685;28;19908;-52
2022/09/12 11:36:06;;;;;;;;;;;20.50;83.30;;;;;;5093176;28;19909;-56
2022/09/12 11:38:46;;;;;;;;;;;20.50;83.30;;;;;;5075043;28;19908;-52
2022/09/12 11:41:11;;;;;;;;;;;20.50;83.30;;;;;;5093670;28;19908;-53
2022/09/12 11:43:40;;;;;;;;;;;20.50;83.30;;;;;;5075128;28;19908;-53
2022/09/12 11:46:09;;;;;;;;;;;20.40;83.30;;;;;;5093273;28;20408;-53
2022/09/12 11:48:44;;;;;;;;;;;20.50;83.40;;;;;;5093374;28;19916;-52
2022/09/12 11:51:17;;;;;;;;;;;20.50;83.40;;;;;;5075213;28;19912;-53
2022/09/12 11:53:42;;;;;;;;;;;20.40;83.40;;;;;;5077217;28;19908;-57
2022/09/12 11:56:11;;;;;;;;;;;20.50;83.40;;;;;;5078745;28;19931;-54
2022/09/12 11:58:39;;;;;;;;;;;20.50;83.40;;;;;;5096921;28;19959;-55
2022/09/12 12:01:11;;;;;;;;;;;20.50;83.40;;;;;;5078531;28;20249;-56
2022/09/12 12:03:41;;;;;;;;;;;20.50;83.40;;;;;;5096794;28;20451;-55
2022/09/12 12:06:12;;;;;;;;;;;20.50;83.40;;;;;;5096503;28;19944;-56
2022/09/12 12:08:39;;;;;;;;;;;20.50;83.50;;;;;;5096440;28;19938;-56
2022/09/12 12:11:06;;;;;;;;;;;20.50;83.50;;;;;;5096978;28;19943;-54
2022/09/12 12:13:47;;;;;;;;;;;20.50;83.50;;;;;;5096435;28;19908;-55
2022/09/12 12:16:21;;;;;;;;;;;20.40;83.40;;;;;;5096158;28;20316;-56
2022/09/12 12:18:53;;;;;;;;;;;20.50;83.40;;;;;;5096206;28;19908;-54
2022/09/12 12:21:18;;;;;;;;;;;20.50;83.40;;;;;;5078159;28;19908;-56
2022/09/12 12:24:01;;;;;;;;;;;20.40;83.40;;;;;;5078053;28;20278;-54
2022/09/12 12:26:41;;;;;;;;;;;20.50;83.40;;;;;;5095662;28;20359;-53
2022/09/12 12:29:16;;;;;;;;;;;20.50;83.40;;;;;;5096075;28;19911;-55
2022/09/12 12:32:00;;;;;;;;;;;20.50;83.50;;;;;;5095750;28;19912;-55
2022/09/12 12:34:45;;;;;;;;;;;20.50;83.40;;;;;;5095941;28;19908;-56
2022/09/12 12:37:20;;;;;;;;;;;20.50;83.40;;;;;;5095533;28;19908;-53
2022/09/12 12:39:46;;;;;;;;;;;20.50;83.40;;;;;;5095882;28;19948;-56
2022/09/12 12:42:31;;;;;;;;;;;20.50;83.40;;;;;;5095438;28;20282;-54
2022/09/12 12:44:56;;;;;;;;;;;20.50;83.40;;;;;;5095620;28;19961;-53
2022/09/12 12:47:24;;;;;;;;;;;20.50;83.40;;;;;;5095748;28;19945;-57
2022/09/12 12:50:01;;;;;;;;;;;20.50;83.40;;;;;;5095709;28;19958;-54
2022/09/12 12:52:28;;;;;;;;;;;20.50;83.40;;;;;;5095584;28;20270;-57
2022/09/12 12:54:55;;;;;;;;;;;20.50;83.40;;;;;;5095577;28;20303;-56
2022/09/12 12:57:21;;;;;;;;;;;20.50;83.40;;;;;;5095722;28;19908;-52
2022/09/12 12:59:49;;;;;;;;;;;20.50;83.40;;;;;;5095117;28;19915;-56
2022/09/12 13:02:35;;;;;;;;;;;20.50;83.40;;;;;;5095404;28;19912;-55
2022/09/12 13:05:03;;;;;;;;;;;20.50;83.40;;;;;;5093838;28;20399;-53
2022/09/12 13:07:30;;;;;;;;;;;20.50;83.40;;;;;;5076622;28;19912;-53
2022/09/12 13:09:56;;;;;;;;;;;20.50;83.30;;;;;;5094918;28;19995;-55
2022/09/12 13:12:27;;;;;;;;;;;20.50;83.40;;;;;;5095500;28;20001;-56
2022/09/12 13:14:53;;;;;;;;;;;20.50;83.40;;;;;;5095431;28;20337;-54
2022/09/12 13:17:38;;;;;;;;;;;20.40;83.30;;;;;;5094836;28;19961;-55
2022/09/12 13:20:07;;;;;;;;;;;20.50;83.30;;;;;;5076765;28;19908;-51
2022/09/12 13:22:43;;;;;;;;;;;20.50;83.30;;;;;;5095231;28;19940;-56
2022/09/12 13:25:19;;;;;;;;;;;20.50;83.30;;;;;;5094884;28;20271;-54
2022/09/12 13:27:58;;;;;;;;;;;20.50;83.90;;;;;;5076653;28;20396;-55
2022/09/12 13:30:24;;;;;;;;;;;20.50;83.30;;;;;;5094609;28;19920;-56
2022/09/12 13:32:51;;;;;;;;;;;20.50;83.30;;;;;;5076526;28;19915;-53
2022/09/12 13:35:22;;;;;;;;;;;20.50;83.30;;;;;;5094907;28;19919;-52
2022/09/12 13:37:51;;;;;;;;;;;20.50;83.30;;;;;;5076279;28;19962;-54
2022/09/12 13:40:39;;;;;;;;;;;20.50;83.30;;;;;;5094628;28;19915;-55
2022/09/12 13:43:12;;;;;;;;;;;20.50;83.30;;;;;;5094538;28;19955;-56
2022/09/12 13:45:38;;;;;;;;;;;20.50;83.30;;;;;;5076190;28;19951;-54
2022/09/12 13:48:06;;;;;;;;;;;20.50;83.30;;;;;;5075993;28;19959;-52
2022/09/12 13:50:51;;;;;;;;;;;20.50;83.30;;;;;;5094018;28;20357;-55
2022/09/12 13:53:19;;;;;;;;;;;20.50;83.30;;;;;;5093722;28;19915;-55
2022/09/12 13:55:46;;;;;;;;;;;20.50;83.30;;;;;;5075798;28;19948;-55
2022/09/12 13:58:18;;;;;;;;;;;20.50;83.30;;;;;;5094122;28;19914;-55
2022/09/12 14:00:44;;;;;;;;;;;20.50;83.30;;;;;;5094127;28;19970;-56
2022/09/12 14:06:17;;;;;;;;;;;20.50;83.30;;;;;;5094127;28;19915;-55
2022/09/12 14:08:43;;;;;;;;;;;20.50;83.30;;;;;;5075771;28;19916;-56
2022/09/12 14:11:17;;;;;;;;;;;20.50;83.30;;;;;;5076017;28;20208;-53
2022/09/12 14:13:44;;;;;;;;;;;20.50;83.30;;;;;;5094205;28;19916;-55
2022/09/12 14:16:11;;;;;;;;;;;20.50;83.80;;;;;;5093888;28;20305;-55
2022/09/12 14:18:37;;;;;;;;;;;20.50;83.30;;;;;;5075633;28;19995;-54
2022/09/12 14:21:11;;;;;;;;;;;20.50;83.20;;;;;;5093797;28;19909;-55
2022/09/12 14:23:40;;;;;;;;;;;20.50;83.30;;;;;;5094046;28;19908;-55
2022/09/12 14:26:08;;;;;;;;;;;20.50;83.30;;;;;;5093848;28;19908;-52
2022/09/12 14:28:36;;;;;;;;;;;20.50;83.30;;;;;;5093707;28;19912;-55
2022/09/12 14:31:01;;;;;;;;;;;20.50;83.30;;;;;;5093664;28;20321;-56
2022/09/12 14:33:30;;;;;;;;;;;20.50;83.30;;;;;;5093455;28;19915;-55